Fukui, Japan

12:15 AM JST on July 26, 2016 (GMT +0900)
Komatsu | | Change Station

Elev 30 ft 36.39 °N, 136.41 °E | Updated 15 minutes ago

Light Rain Showers
Light Showers Rain
77 °F
Feels Like 77 °F
N
4
Wind Variable Wind from South

Today
High -- | Low -- °F
--% Chance of Precip.
Yesterday
High -- | Low -- °F
Precip. -- in
Pressure 29.83 in
Visibility 6.2 miles
Clouds Few 3000 ft
Scattered Clouds 5000 ft
Mostly Cloudy 7000 ft
Dew Point 72 °F
Humidity 83%
Rainfall 0.00 in
Snow Depth Not available.
4:57 AM 7:05 PM
Waning Gibbous, 65% visible
METAR RJNK 251500Z 18003KT 9999 -SHRA FEW030 SCT050 BKN070 25/22 Q1010
Pressure 29.83 in
Visibility 6.2 miles
Clouds Few 3000 ft
Scattered Clouds 5000 ft
Mostly Cloudy 7000 ft
Dew Point 72 °F
Humidity 83%
Rainfall 0.00 in
Snow Depth Not available.
4:57 AM 7:05 PM
Waning Gibbous, 65% visible
METAR RJNK 251500Z 18003KT 9999 -SHRA FEW030 SCT050 BKN070 25/22 Q1010

10-Day Weather Forecast

No radar image for this location.
×

Almanac

Astronomy

Jul. 26, 2016 Rise Set
Actual Time
Civil Twilight
Nautical Twilight
Astronomical Twilight
Moon
Length of Visible Light
Length of Day
Tomorrow will be .
, % of the Moon is Illuminated

Today's Extremes

Country Highs Country Lows

Community

WunderPhotos

Upload Photos

1,927,314 photos uploaded!

WunderBlog® & News

Nearby

Air Quality

  Air Quality AQ Index Pollutant
Not available.

Snow Depth

Station Depth Elevation

Earthquake Activity

City Distance Mag. Time & Date
Minimum magnitude displayed is 2.5.

Coastal Water Temperatures

Place Temperature

Stations

Nearby Weather Stations

Station Location Temp. Windchill Dew Point Humidity Wind Precip. Elev Updated Type